Time;durP1;ratioP1;P1;durP2;ratioP2;P2;SDS_P1;SDS_P2;PMS_P1;PMS_P2;Temp;Humidity;BMP_temperature;BMP_pressure;BME280_temperature;BME280_humidity;BME280_pressure;Samples;Min_cycle;Max_cycle;Signal;HPM_P1;HPM_P2
2022/04/02 00:00:28;;;;;;;20.87;16.97;;;1.00;99.90;;;;;;5007209;28;20026;-75
2022/04/02 00:02:57;;;;;;;21.93;17.33;;;1.00;99.90;;;;;;5029437;28;20030;-75
2022/04/02 00:05:25;;;;;;;22.40;17.70;;;1.00;99.90;;;;;;5013605;28;20033;-74
2022/04/02 00:07:50;;;;;;;22.37;18.70;;;1.00;99.90;;;;;;5014068;28;20050;-74
2022/04/02 00:10:16;;;;;;;23.27;18.43;;;1.00;99.90;;;;;;5013735;28;20054;-75
2022/04/02 00:12:41;;;;;;;23.83;19.60;;;1.00;99.90;;;;;;5013746;28;20522;-74
2022/04/02 00:15:07;;;;;;;21.70;18.47;;;1.00;99.90;;;;;;5013531;28;20026;-74
2022/04/02 00:17:33;;;;;;;21.53;17.87;;;1.00;99.90;;;;;;5012657;28;20026;-74
2022/04/02 00:19:59;;;;;;;22.73;16.97;;;1.00;99.90;;;;;;5013714;28;20037;-74
2022/04/02 00:22:27;;;;;;;22.27;18.57;;;1.00;99.90;;;;;;5014125;28;20030;-74
2022/04/02 00:24:52;;;;;;;24.37;19.37;;;1.00;99.90;;;;;;5013719;28;20119;-74
2022/04/02 00:27:18;;;;;;;23.47;19.90;;;1.00;99.90;;;;;;5013566;28;20098;-75
2022/04/02 00:29:44;;;;;;;20.83;17.77;;;1.00;99.90;;;;;;5029020;28;20025;-74
2022/04/02 00:32:09;;;;;;;22.77;18.83;;;1.10;99.90;;;;;;5029019;28;20426;-74
2022/04/02 00:34:35;;;;;;;22.43;18.70;;;1.10;99.90;;;;;;5013925;28;20050;-74
2022/04/02 00:37:00;;;;;;;22.63;18.27;;;1.20;99.90;;;;;;5013470;28;20041;-74
2022/04/02 00:39:26;;;;;;;20.77;17.80;;;1.20;99.90;;;;;;5013159;28;20091;-74
2022/04/02 00:41:52;;;;;;;21.07;17.77;;;1.20;99.90;;;;;;5013292;28;20026;-74
2022/04/02 00:44:17;;;;;;;21.80;18.57;;;1.10;99.90;;;;;;5013627;28;20024;-74
2022/04/02 00:46:44;;;;;;;22.93;19.30;;;1.10;99.90;;;;;;5013489;28;20026;-74
2022/04/02 00:49:12;;;;;;;21.33;18.07;;;1.10;99.90;;;;;;5012441;28;20051;-74
2022/04/02 00:51:42;;;;;;;23.17;19.30;;;1.10;99.90;;;;;;5013442;28;20349;-75
2022/04/02 00:54:13;;;;;;;20.80;17.90;;;1.10;99.90;;;;;;5013666;28;20033;-74
2022/04/02 00:56:40;;;;;;;20.77;17.00;;;1.20;99.90;;;;;;5013474;28;20029;-75
2022/04/02 00:59:06;;;;;;;19.50;16.83;;;1.10;99.90;;;;;;5009874;28;20026;-75
2022/04/02 01:01:31;;;;;;;21.37;18.27;;;1.10;99.90;;;;;;5011888;28;20025;-75
2022/04/02 01:04:01;;;;;;;20.60;16.43;;;1.10;99.90;;;;;;5012235;28;20014;-75
2022/04/02 01:06:28;;;;;;;19.37;16.70;;;1.20;99.90;;;;;;5013573;28;20305;-75
2022/04/02 01:08:56;;;;;;;18.97;15.83;;;1.30;99.90;;;;;;5013506;28;20070;-75
2022/04/02 01:11:21;;;;;;;18.10;15.30;;;1.30;99.90;;;;;;5013272;28;20042;-75
2022/04/02 01:13:47;;;;;;;19.30;15.47;;;1.30;99.90;;;;;;5013718;28;20102;-75
2022/04/02 01:16:13;;;;;;;18.17;15.13;;;1.30;99.90;;;;;;5028932;28;20120;-75
2022/04/02 01:18:39;;;;;;;17.57;15.30;;;1.20;99.90;;;;;;5012185;28;20030;-75
2022/04/02 01:21:04;;;;;;;17.07;13.33;;;1.30;99.90;;;;;;5013623;28;20168;-75
2022/04/02 01:23:30;;;;;;;16.30;13.70;;;1.40;99.90;;;;;;5013752;28;20088;-75
2022/04/02 01:25:57;;;;;;;16.50;13.70;;;1.50;99.90;;;;;;5013492;28;20541;-75
2022/04/02 01:28:24;;;;;;;17.80;14.13;;;1.60;99.90;;;;;;5012761;28;20026;-74
2022/04/02 01:30:50;;;;;;;18.30;15.13;;;1.80;99.90;;;;;;5012488;28;20033;-74
2022/04/02 01:33:15;;;;;;;20.10;16.07;;;1.70;99.90;;;;;;5012926;28;20058;-74
2022/04/02 01:35:41;;;;;;;19.67;16.07;;;1.60;99.90;;;;;;5013157;28;20029;-74
2022/04/02 01:38:07;;;;;;;19.90;14.93;;;1.60;99.90;;;;;;5028358;28;20026;-74
2022/04/02 01:40:32;;;;;;;21.70;17.00;;;1.60;99.90;;;;;;5013148;28;20057;-75
2022/04/02 01:42:58;;;;;;;21.47;17.10;;;1.60;99.90;;;;;;5012793;28;20095;-75
2022/04/02 01:45:23;;;;;;;21.97;17.50;;;1.50;99.90;;;;;;5013042;28;20084;-75
2022/04/02 01:47:51;;;;;;;22.30;17.73;;;1.40;99.90;;;;;;5028215;28;20095;-75
2022/04/02 01:50:17;;;;;;;21.90;17.50;;;1.30;99.90;;;;;;5013043;28;20073;-75
2022/04/02 01:52:43;;;;;;;21.40;17.00;;;1.30;99.90;;;;;;5012988;28;20411;-75
2022/04/02 01:55:09;;;;;;;21.73;17.07;;;1.50;99.90;;;;;;5028137;28;20119;-75
2022/04/02 01:57:36;;;;;;;21.20;16.77;;;1.50;99.90;;;;;;5012777;28;20038;-75
2022/04/02 02:00:03;;;;;;;21.33;17.47;;;1.50;99.90;;;;;;5002376;28;20044;-75
2022/04/02 02:02:28;;;;;;;21.23;17.10;;;1.40;99.90;;;;;;5008441;28;20042;-75
2022/04/02 02:04:56;;;;;;;21.67;17.00;;;1.50;99.90;;;;;;4993358;28;20461;-75
2022/04/02 02:07:22;;;;;;;21.57;17.57;;;1.30;99.90;;;;;;4993174;28;20029;-75
2022/04/02 02:09:48;;;;;;;21.27;16.50;;;1.30;99.90;;;;;;4991762;28;20039;-75
2022/04/02 02:12:15;;;;;;;21.67;17.20;;;1.30;99.90;;;;;;4998517;28;20033;-75
2022/04/02 02:14:40;;;;;;;23.27;17.30;;;1.40;99.90;;;;;;5012718;28;20084;-76
2022/04/02 02:17:06;;;;;;;21.53;16.57;;;1.30;99.90;;;;;;5027789;28;20038;-75
2022/04/02 02:19:32;;;;;;;21.33;16.57;;;1.30;99.90;;;;;;5012592;28;20030;-75
2022/04/02 02:21:57;;;;;;;21.17;16.20;;;1.30;99.90;;;;;;5012608;28;20489;-75
2022/04/02 02:24:23;;;;;;;21.77;16.60;;;1.20;99.90;;;;;;5012650;28;20030;-75
2022/04/02 02:26:50;;;;;;;24.43;16.93;;;1.30;99.90;;;;;;5012252;28;20022;-76
2022/04/02 02:29:15;;;;;;;21.50;16.40;;;1.30;99.90;;;;;;5012522;28;20037;-76
2022/04/02 02:31:41;;;;;;;21.30;16.57;;;1.20;99.90;;;;;;5011893;28;20506;-76
2022/04/02 02:36:51;;;;;;;23.77;17.53;;;1.20;99.90;;;;;;5012360;28;20037;-76
2022/04/02 02:39:16;;;;;;;20.13;16.60;;;1.20;99.90;;;;;;5012395;28;20375;-75
2022/04/02 02:41:42;;;;;;;22.70;16.10;;;1.20;99.90;;;;;;5015842;28;20063;-75
2022/04/02 02:44:08;;;;;;;25.27;16.00;;;1.10;99.90;;;;;;5015964;28;20156;-75
2022/04/02 02:46:34;;;;;;;18.70;14.93;;;1.10;99.90;;;;;;5015867;28;20072;-75
2022/04/02 02:49:00;;;;;;;21.77;16.00;;;1.20;99.90;;;;;;5016229;28;20025;-75
2022/04/02 02:51:26;;;;;;;19.73;15.57;;;1.20;99.90;;;;;;5015803;28;20343;-75
2022/04/02 02:53:51;;;;;;;19.70;15.33;;;1.10;99.90;;;;;;5015188;28;20026;-75
2022/04/02 02:56:17;;;;;;;20.93;15.40;;;1.20;99.90;;;;;;5015998;28;20034;-75
2022/04/02 02:58:43;;;;;;;19.63;15.53;;;1.20;99.90;;;;;;5022517;28;20377;-75
2022/04/02 03:01:11;;;;;;;20.17;14.93;;;1.10;99.90;;;;;;4996472;28;20019;-75
2022/04/02 03:03:38;;;;;;;17.90;14.80;;;1.20;99.90;;;;;;4994934;28;20033;-75
2022/04/02 03:06:04;;;;;;;25.60;15.13;;;1.10;99.90;;;;;;4995998;28;20029;-75
2022/04/02 03:08:29;;;;;;;19.17;14.00;;;1.10;99.90;;;;;;5011412;28;20037;-75
2022/04/02 03:10:55;;;;;;;18.13;12.67;;;1.00;99.90;;;;;;4996154;28;20022;-75
2022/04/02 03:13:20;;;;;;;17.70;13.73;;;1.00;99.90;;;;;;4995952;28;20101;-75
2022/04/02 03:15:46;;;;;;;21.47;14.87;;;1.00;99.90;;;;;;4994627;28;20027;-75
2022/04/02 03:18:12;;;;;;;19.43;14.43;;;1.00;99.90;;;;;;5011116;28;20026;-75
2022/04/02 03:20:38;;;;;;;18.80;13.17;;;0.90;99.90;;;;;;4995867;28;20030;-75
2022/04/02 03:23:05;;;;;;;17.40;13.17;;;0.90;99.90;;;;;;4995820;28;20404;-75
2022/04/02 03:25:31;;;;;;;18.00;13.73;;;0.90;99.90;;;;;;4994352;28;20023;-75
2022/04/02 03:27:58;;;;;;;19.40;14.77;;;0.80;99.90;;;;;;4995517;28;20022;-75
2022/04/02 03:30:25;;;;;;;19.10;13.83;;;0.80;99.90;;;;;;4995553;28;20042;-75
2022/04/02 03:32:52;;;;;;;19.83;14.33;;;0.80;99.90;;;;;;4994153;28;20399;-75
2022/04/02 03:35:18;;;;;;;17.40;13.67;;;0.80;99.90;;;;;;5010756;28;20037;-75
2022/04/02 03:37:46;;;;;;;17.97;13.87;;;0.80;99.90;;;;;;4999042;28;20116;-75
2022/04/02 03:40:14;;;;;;;23.30;13.90;;;0.80;99.90;;;;;;5014846;28;20037;-75
2022/04/02 03:42:41;;;;;;;17.70;13.80;;;0.80;99.90;;;;;;5013290;28;20374;-75
2022/04/02 03:45:08;;;;;;;19.70;14.23;;;0.70;99.90;;;;;;5014335;28;20033;-75
2022/04/02 03:47:34;;;;;;;20.37;13.77;;;0.70;99.90;;;;;;5013166;28;20026;-75
2022/04/02 03:49:59;;;;;;;20.30;14.37;;;0.70;99.90;;;;;;5014354;28;20037;-75
2022/04/02 03:52:25;;;;;;;19.70;14.40;;;0.70;99.90;;;;;;5014043;28;20036;-75
2022/04/02 03:54:51;;;;;;;20.63;15.03;;;0.70;99.90;;;;;;5029462;28;20387;-75
2022/04/02 03:57:17;;;;;;;18.43;13.40;;;0.70;99.90;;;;;;5011569;28;20029;-75
2022/04/02 03:59:44;;;;;;;20.53;12.83;;;0.70;99.90;;;;;;5006223;28;20031;-75
2022/04/02 04:02:10;;;;;;;17.40;12.50;;;0.60;99.90;;;;;;5000889;28;20565;-75
2022/04/02 04:04:37;;;;;;;19.07;13.50;;;0.60;99.90;;;;;;5014404;28;20022;-75
2022/04/02 04:07:03;;;;;;;19.37;13.00;;;0.60;99.90;;;;;;5013112;28;20021;-75
2022/04/02 04:09:28;;;;;;;19.17;13.10;;;0.60;99.90;;;;;;5014449;28;20368;-75
2022/04/02 04:11:54;;;;;;;28.67;15.77;;;0.60;99.90;;;;;;5014356;28;20105;-75
2022/04/02 04:14:20;;;;;;;19.27;13.87;;;0.60;99.90;;;;;;5012985;28;20466;-75
2022/04/02 04:16:46;;;;;;;18.13;14.33;;;0.60;99.90;;;;;;5014484;28;20030;-75
2022/04/02 04:19:13;;;;;;;20.37;13.57;;;0.70;99.90;;;;;;5012997;28;20026;-74
2022/04/02 04:21:39;;;;;;;21.83;14.47;;;0.70;99.90;;;;;;5014196;28;20022;-75
2022/04/02 04:24:06;;;;;;;19.67;14.13;;;0.60;99.90;;;;;;5029321;28;20054;-75
2022/04/02 04:26:32;;;;;;;23.00;14.30;;;0.70;99.90;;;;;;5014348;28;20379;-75
2022/04/02 04:28:58;;;;;;;17.37;13.67;;;0.70;99.90;;;;;;5013903;28;20037;-75
2022/04/02 04:31:24;;;;;;;20.67;14.37;;;0.70;99.90;;;;;;5013850;28;20445;-75
2022/04/02 04:33:49;;;;;;;25.33;14.50;;;0.60;99.90;;;;;;5012768;28;20430;-75
2022/04/02 04:36:18;;;;;;;19.80;14.73;;;0.70;99.90;;;;;;5013763;28;20041;-75
2022/04/02 04:38:45;;;;;;;21.20;14.20;;;0.60;99.90;;;;;;5013874;28;20490;-75
2022/04/02 04:41:11;;;;;;;20.83;12.97;;;0.70;99.90;;;;;;5013890;28;20026;-75
2022/04/02 04:43:37;;;;;;;20.70;13.70;;;0.70;99.90;;;;;;5013916;28;20022;-74
2022/04/02 04:46:03;;;;;;;21.83;13.53;;;0.70;99.90;;;;;;5013971;28;20018;-75
2022/04/02 04:48:29;;;;;;;19.60;13.87;;;0.60;99.90;;;;;;5013801;28;20029;-75
2022/04/02 04:50:55;;;;;;;26.33;14.17;;;0.60;99.90;;;;;;5013573;28;20025;-75
2022/04/02 04:53:21;;;;;;;42.67;25.20;;;0.60;99.90;;;;;;5029013;28;20061;-75
2022/04/02 04:55:47;;;;;;;25.47;18.13;;;0.50;99.90;;;;;;5013648;28;20408;-75
2022/04/02 04:58:13;;;;;;;23.80;16.23;;;0.50;99.90;;;;;;5028564;28;20022;-75
2022/04/02 05:00:40;;;;;;;20.33;14.30;;;0.50;99.90;;;;;;5013590;28;20029;-74
2022/04/02 05:03:08;;;;;;;21.47;14.47;;;0.60;99.90;;;;;;5013117;28;20030;-75
2022/04/02 05:05:34;;;;;;;24.63;16.63;;;0.50;99.90;;;;;;5013085;28;20072;-75
2022/04/02 05:08:00;;;;;;;27.43;13.87;;;0.50;99.90;;;;;;5011942;28;20030;-74
2022/04/02 05:10:27;;;;;;;22.77;15.47;;;0.50;99.90;;;;;;5028363;28;20041;-75
2022/04/02 05:12:56;;;;;;;24.80;15.77;;;0.40;99.90;;;;;;5028566;28;20552;-75
2022/04/02 05:15:21;;;;;;;21.83;14.80;;;0.30;99.90;;;;;;5011303;28;20095;-73
2022/04/02 05:17:47;;;;;;;23.13;14.13;;;0.40;99.90;;;;;;5012434;28;20037;-74
2022/04/02 05:20:14;;;;;;;32.63;23.33;;;0.50;99.90;;;;;;5013197;28;20387;-74
2022/04/02 05:22:41;;;;;;;33.87;22.17;;;0.40;99.90;;;;;;5013283;28;20387;-74
2022/04/02 05:25:08;;;;;;;23.23;16.23;;;0.40;99.90;;;;;;5025101;28;20018;-74
2022/04/02 05:27:33;;;;;;;21.97;15.20;;;0.50;99.90;;;;;;5015174;28;20447;-74
2022/04/02 05:30:00;;;;;;;25.37;14.50;;;0.50;99.90;;;;;;5003095;28;20030;-74
2022/04/02 05:32:28;;;;;;;23.80;14.47;;;0.40;99.90;;;;;;5019289;28;20072;-74
2022/04/02 05:34:54;;;;;;;25.73;15.53;;;0.50;99.90;;;;;;5020579;28;20093;-74
2022/04/02 05:37:19;;;;;;;32.87;16.30;;;0.50;99.90;;;;;;5021425;28;20132;-74
2022/04/02 05:39:45;;;;;;;29.13;16.03;;;0.40;99.90;;;;;;5005455;28;20031;-74
2022/04/02 05:42:12;;;;;;;27.67;15.77;;;0.30;99.90;;;;;;5014894;28;20411;-74
2022/04/02 05:44:38;;;;;;;29.33;16.33;;;0.30;99.90;;;;;;5016511;28;20418;-81
2022/04/02 05:47:04;;;;;;;30.90;15.30;;;0.30;99.90;;;;;;5027951;28;20060;-81
2022/04/02 05:49:31;;;;;;;26.80;16.03;;;0.30;99.90;;;;;;5029079;28;20474;-81
2022/04/02 05:51:57;;;;;;;30.50;20.03;;;0.30;99.90;;;;;;5043291;28;20529;-81
2022/04/02 05:54:23;;;;;;;26.03;16.37;;;0.40;99.90;;;;;;5025286;28;20034;-81
2022/04/02 05:56:48;;;;;;;28.00;17.60;;;0.30;99.90;;;;;;5025849;28;20079;-81
2022/04/02 05:59:14;;;;;;;31.80;18.17;;;0.30;99.90;;;;;;5022191;28;20052;-79
2022/04/02 06:01:40;;;;;;;25.27;16.60;;;0.20;99.90;;;;;;5017315;28;20057;-79
2022/04/02 06:04:05;;;;;;;28.33;17.93;;;0.20;99.90;;;;;;5004150;28;20032;-79
2022/04/02 06:06:31;;;;;;;29.00;16.47;;;0.30;99.90;;;;;;5014684;28;20069;-79
2022/04/02 06:08:57;;;;;;;43.37;30.03;;;0.40;99.90;;;;;;5015374;28;20032;-79
2022/04/02 06:11:23;;;;;;;30.43;18.57;;;0.40;99.90;;;;;;5016921;28;20067;-79
2022/04/02 06:13:50;;;;;;;33.70;20.77;;;0.50;99.90;;;;;;5027625;28;20473;-79
2022/04/02 06:16:16;;;;;;;30.10;19.43;;;0.60;99.90;;;;;;5016206;28;20025;-77
2022/04/02 06:18:43;;;;;;;30.57;17.40;;;0.50;99.90;;;;;;5027895;28;20017;-77
2022/04/02 06:21:08;;;;;;;30.77;16.20;;;0.60;99.90;;;;;;5023916;28;20626;-77
2022/04/02 06:23:34;;;;;;;23.03;15.40;;;0.60;99.90;;;;;;5027447;28;20104;-77
2022/04/02 06:25:59;;;;;;;25.27;14.73;;;0.70;99.90;;;;;;5024383;28;20026;-77
2022/04/02 06:28:25;;;;;;;24.23;15.43;;;0.70;99.90;;;;;;5028736;28;20018;-77
2022/04/02 06:30:51;;;;;;;23.50;14.57;;;0.60;99.90;;;;;;5025121;28;20022;-77
2022/04/02 06:33:16;;;;;;;25.57;16.17;;;0.70;99.90;;;;;;5028528;28;20053;-77
2022/04/02 06:35:42;;;;;;;22.90;14.60;;;0.70;99.90;;;;;;5029950;28;20068;-72
2022/04/02 06:38:08;;;;;;;28.00;14.90;;;0.80;99.90;;;;;;5030336;28;20033;-77
2022/04/02 06:40:33;;;;;;;22.23;13.60;;;0.80;99.90;;;;;;5028906;28;20071;-78
2022/04/02 06:42:59;;;;;;;26.10;14.63;;;0.70;99.90;;;;;;5025484;28;20092;-78
2022/04/02 06:45:26;;;;;;;21.67;13.47;;;0.70;99.90;;;;;;5036690;28;20463;-77
2022/04/02 06:47:51;;;;;;;22.97;13.80;;;0.80;99.90;;;;;;5023829;28;20083;-78
2022/04/02 06:50:18;;;;;;;22.17;13.77;;;0.80;99.90;;;;;;5027954;28;20124;-77
2022/04/02 06:52:45;;;;;;;20.57;14.03;;;0.90;99.90;;;;;;5017419;28;20022;-80
2022/04/02 06:55:12;;;;;;;25.40;13.43;;;0.90;99.90;;;;;;5015060;28;20111;-77
2022/04/02 06:57:42;;;;;;;22.83;14.23;;;0.90;99.90;;;;;;5015282;28;20045;-77
2022/04/02 07:00:08;;;;;;;19.73;13.23;;;0.90;99.90;;;;;;5017966;28;20494;-77
2022/04/02 07:02:33;;;;;;;19.37;13.77;;;1.00;99.90;;;;;;5027815;28;20030;-77
2022/04/02 07:04:59;;;;;;;26.20;14.57;;;1.00;99.90;;;;;;5020301;28;20237;-77
2022/04/02 07:07:24;;;;;;;23.63;14.40;;;1.00;99.90;;;;;;5023231;28;20478;-77
2022/04/02 07:09:50;;;;;;;22.73;14.37;;;1.00;99.90;;;;;;5027979;28;20029;-77
2022/04/02 07:12:15;;;;;;;21.90;13.07;;;1.00;99.90;;;;;;5026638;28;20032;-77
2022/04/02 07:14:41;;;;;;;26.57;15.33;;;1.10;99.90;;;;;;5022504;28;20033;-77
2022/04/02 07:17:06;;;;;;;23.47;15.73;;;1.10;99.90;;;;;;5021525;28;20022;-77
2022/04/02 07:19:33;;;;;;;21.50;15.77;;;1.10;99.90;;;;;;5005312;28;20040;-77
2022/04/02 07:22:00;;;;;;;23.27;15.00;;;1.00;99.90;;;;;;5006805;28;20026;-77
2022/04/02 07:24:26;;;;;;;20.87;13.47;;;1.20;99.90;;;;;;5006938;28;20026;-77
2022/04/02 07:26:53;;;;;;;19.70;13.33;;;1.20;99.90;;;;;;5008160;28;20033;-77
2022/04/02 07:29:19;;;;;;;24.23;12.87;;;1.20;99.90;;;;;;4991318;28;20045;-77
2022/04/02 07:31:45;;;;;;;19.70;13.37;;;1.20;99.90;;;;;;4989056;28;20050;-77
2022/04/02 07:34:11;;;;;;;26.93;14.37;;;1.20;99.90;;;;;;4991980;28;20356;-77
2022/04/02 07:36:57;;;;;;;19.83;13.47;;;1.10;99.90;;;;;;4990970;28;20026;-77
2022/04/02 07:39:47;;;;;;;21.63;13.20;;;1.10;99.90;;;;;;4992112;28;20117;-77
2022/04/02 07:42:27;;;;;;;21.17;12.90;;;1.10;99.90;;;;;;4990937;28;20471;-76
2022/04/02 07:45:27;;;;;;;39.13;25.80;;;1.30;99.90;;;;;;4990878;28;20427;-77
2022/04/02 07:47:57;;;;;;;39.27;26.07;;;1.40;99.90;;;;;;4988926;28;20058;-77
2022/04/02 07:50:24;;;;;;;33.00;21.83;;;1.40;99.90;;;;;;4990437;28;20046;-77
2022/04/02 07:52:52;;;;;;;23.97;17.47;;;1.40;99.90;;;;;;4988938;28;20053;-77
2022/04/02 07:55:18;;;;;;;20.43;15.10;;;1.50;99.90;;;;;;4990184;28;20031;-77
2022/04/02 07:57:49;;;;;;;25.10;16.57;;;1.60;99.90;;;;;;4993438;28;20038;-77
2022/04/02 08:00:18;;;;;;;23.23;13.17;;;1.60;99.90;;;;;;5014988;28;20105;-78
2022/04/02 08:02:46;;;;;;;22.70;16.17;;;1.60;99.90;;;;;;5016226;28;20027;-79
2022/04/02 08:05:14;;;;;;;23.60;14.20;;;1.50;99.90;;;;;;5031272;28;20033;-79
2022/04/02 08:07:49;;;;;;;21.73;13.20;;;1.50;99.90;;;;;;5014188;28;20386;-79
2022/04/02 08:10:15;;;;;;;46.10;18.23;;;1.70;99.90;;;;;;5014012;28;20022;-78
2022/04/02 08:12:42;;;;;;;43.73;16.80;;;1.80;99.90;;;;;;5014152;28;20421;-78
2022/04/02 08:15:11;;;;;;;23.50;12.90;;;1.80;99.90;;;;;;5015637;28;20108;-78
2022/04/02 08:17:41;;;;;;;24.50;12.80;;;1.90;99.90;;;;;;5015489;28;20033;-77
2022/04/02 08:20:08;;;;;;;27.63;13.17;;;2.00;99.90;;;;;;5015432;28;20049;-77
2022/04/02 08:22:34;;;;;;;20.20;12.37;;;2.10;99.90;;;;;;5013871;28;20118;-78
2022/04/02 08:24:59;;;;;;;47.30;15.63;;;2.00;99.90;;;;;;5013885;28;20105;-78
2022/04/02 08:27:55;;;;;;;20.37;13.30;;;1.90;99.90;;;;;;5015153;28;20103;-78
2022/04/02 08:30:33;;;;;;;15.80;11.07;;;1.80;99.90;;;;;;5015489;28;20057;-78
2022/04/02 08:33:27;;;;;;;22.33;16.67;;;1.60;99.90;;;;;;5014931;28;20405;-77
2022/04/02 08:36:02;;;;;;;16.33;10.50;;;1.60;99.90;;;;;;5015130;28;20109;-77
2022/04/02 08:38:54;;;;;;;15.50;11.40;;;1.60;99.90;;;;;;5018628;28;20105;-69
2022/04/02 08:41:57;;;;;;;15.57;12.03;;;1.50;99.90;;;;;;5013984;28;20032;-78
2022/04/02 08:44:53;;;;;;;24.13;13.77;;;1.40;99.90;;;;;;4999669;28;20077;-78
2022/04/02 08:47:35;;;;;;;18.45;12.50;;;1.30;99.90;;;;;;5013931;28;20160;-78
2022/04/02 08:50:10;;;;;;;21.93;14.67;;;1.20;99.90;;;;;;5020632;28;20014;-78
2022/04/02 08:53:07;;;;;;;25.63;14.77;;;1.30;99.90;;;;;;5034135;28;20021;-82
2022/04/02 08:55:35;;;;;;;23.60;14.37;;;1.30;99.90;;;;;;5028809;28;20025;-81
2022/04/02 08:58:09;;;;;;;22.87;12.67;;;1.40;99.90;;;;;;5016173;28;20527;-78
2022/04/02 09:00:40;;;;;;;16.87;11.93;;;1.50;99.90;;;;;;5009931;28;20030;-80
2022/04/02 09:03:29;;;;;;;19.50;12.23;;;1.50;99.90;;;;;;5028719;28;20478;-77
2022/04/02 09:06:28;;;;;;;19.93;12.27;;;1.40;99.90;;;;;;5027118;28;20033;-76
2022/04/02 09:09:27;;;;;;;18.60;12.90;;;1.40;99.90;;;;;;5032558;28;20036;-76
2022/04/02 09:12:17;;;;;;;15.53;11.27;;;1.40;99.90;;;;;;5026168;28;20033;-77
2022/04/02 09:14:51;;;;;;;17.10;12.30;;;1.40;99.90;;;;;;5031254;28;20056;-77
2022/04/02 09:17:34;;;;;;;19.48;12.38;;;1.50;99.90;;;;;;5032529;28;20033;-77
2022/04/02 09:20:02;;;;;;;23.10;12.43;;;1.60;99.90;;;;;;5031585;28;20034;-77
2022/04/02 09:22:44;;;;;;;18.03;11.93;;;1.70;99.90;;;;;;5029184;28;20048;-77
2022/04/02 09:25:15;;;;;;;20.17;11.20;;;1.90;99.90;;;;;;5012767;28;20044;-77
2022/04/02 09:28:18;;;;;;;18.10;11.67;;;1.90;99.90;;;;;;5012743;28;20382;-77
2022/04/02 09:31:02;;;;;;;17.07;11.13;;;1.90;99.90;;;;;;5012173;28;20022;-77
2022/04/02 09:34:01;;;;;;;17.47;11.10;;;1.80;99.90;;;;;;5010829;28;20042;-77
2022/04/02 09:36:31;;;;;;;20.10;11.50;;;1.80;99.90;;;;;;5010760;28;20525;-77
2022/04/02 09:39:30;;;;;;;17.47;12.33;;;1.80;99.90;;;;;;5012733;28;20030;-77
2022/04/02 09:42:21;;;;;;;21.17;11.93;;;1.80;99.90;;;;;;5011580;28;20121;-77
2022/04/02 09:45:03;;;;;;;14.53;11.67;;;1.90;99.90;;;;;;5012796;28;20498;-77
2022/04/02 09:47:56;;;;;;;18.67;11.60;;;1.90;99.90;;;;;;5012993;28;20022;-77
2022/04/02 09:50:24;;;;;;;32.27;15.03;;;1.90;99.90;;;;;;5009208;28;20029;-77
2022/04/02 09:53:11;;;;;;;19.70;11.77;;;2.00;99.90;;;;;;5011461;28;20026;-77
2022/04/02 09:56:15;;;;;;;19.43;11.90;;;1.90;99.90;;;;;;5012814;28;20033;-78
2022/04/02 09:59:02;;;;;;;18.20;11.67;;;1.90;99.90;;;;;;4994363;28;20060;-76
2022/04/02 10:01:39;;;;;;;20.13;11.80;;;1.90;99.90;;;;;;5006280;28;20360;-76
2022/04/02 10:04:26;;;;;;;17.03;11.93;;;1.80;99.90;;;;;;5011322;28;20494;-75
2022/04/02 10:06:56;;;;;;;18.93;12.90;;;1.70;99.90;;;;;;5009589;28;20470;-74
2022/04/02 10:09:23;;;;;;;24.37;13.47;;;1.80;99.90;;;;;;5028784;28;20435;-73
2022/04/02 10:11:52;;;;;;;21.43;11.40;;;1.80;99.90;;;;;;5013612;28;20521;-73
2022/04/02 10:14:23;;;;;;;17.57;11.87;;;1.70;99.90;;;;;;5029056;28;20034;-73
2022/04/02 10:16:52;;;;;;;17.73;12.67;;;1.60;99.90;;;;;;5013018;28;20088;-73
2022/04/02 10:19:20;;;;;;;21.53;12.70;;;1.60;99.90;;;;;;5013101;28;20073;-74
2022/04/02 10:21:50;;;;;;;24.97;12.70;;;1.60;99.90;;;;;;5011902;28;20247;-73
2022/04/02 10:24:23;;;;;;;21.17;13.57;;;1.70;99.90;;;;;;5013823;28;20022;-73
2022/04/02 10:26:55;;;;;;;17.87;12.87;;;1.70;99.90;;;;;;5013209;28;20105;-74
2022/04/02 10:29:51;;;;;;;17.20;12.50;;;1.80;99.90;;;;;;5013281;28;20030;-74
2022/04/02 10:32:36;;;;;;;17.73;11.40;;;1.90;99.90;;;;;;4989825;28;20054;-73
2022/04/02 10:35:08;;;;;;;19.90;11.98;;;1.90;99.90;;;;;;4973911;28;20054;-73
2022/04/02 10:38:10;;;;;;;19.30;12.87;;;1.90;99.90;;;;;;4984134;28;20513;-74
2022/04/02 10:40:50;;;;;;;16.57;11.63;;;1.90;99.90;;;;;;4972818;28;20035;-74
2022/04/02 10:43:27;;;;;;;16.67;13.20;;;1.80;99.90;;;;;;4977701;28;20034;-74
2022/04/02 10:45:54;;;;;;;21.80;13.20;;;1.80;99.90;;;;;;4978633;28;20014;-77
2022/04/02 10:48:37;;;;;;;20.33;12.70;;;1.80;99.90;;;;;;4972627;28;20034;-77
2022/04/02 10:51:03;;;;;;;16.07;11.57;;;1.80;99.90;;;;;;4978477;28;20041;-77
2022/04/02 10:53:32;;;;;;;20.13;12.20;;;1.90;99.90;;;;;;4977783;28;20018;-77
2022/04/02 10:56:01;;;;;;;19.77;12.50;;;1.90;99.90;;;;;;4976867;28;20561;-77
2022/04/02 10:58:36;;;;;;;17.97;12.03;;;2.20;99.90;;;;;;4972821;28;20150;-77
2022/04/02 11:01:04;;;;;;;16.97;11.13;;;2.30;99.90;;;;;;4976901;28;20447;-77
2022/04/02 11:03:40;;;;;;;14.97;10.20;;;2.30;99.90;;;;;;4974261;28;20033;-77
2022/04/02 11:06:09;;;;;;;19.00;12.00;;;2.40;99.90;;;;;;4975803;28;20018;-79
2022/04/02 11:08:35;;;;;;;17.70;11.10;;;2.30;99.90;;;;;;4976457;28;20023;-80
2022/04/02 11:11:19;;;;;;;15.80;10.60;;;2.30;99.90;;;;;;4974457;28;20034;-80
2022/04/02 11:13:52;;;;;;;17.60;11.87;;;2.30;99.90;;;;;;4978225;28;20033;-80
2022/04/02 11:16:23;;;;;;;15.30;11.07;;;2.30;99.90;;;;;;4974129;28;20026;-80
2022/04/02 11:22:01;;;;;;;19.20;11.20;;;2.20;99.90;;;;;;4974373;28;20045;-80
2022/04/02 11:24:30;;;;;;;17.03;12.03;;;2.10;99.90;;;;;;4980694;28;20057;-80
2022/04/02 11:26:57;;;;;;;19.63;12.20;;;2.00;99.90;;;;;;4980717;28;20077;-80
2022/04/02 11:29:24;;;;;;;18.47;11.37;;;1.90;99.90;;;;;;4972031;28;20026;-80
2022/04/02 11:31:50;;;;;;;15.43;11.20;;;1.80;99.90;;;;;;4994367;28;20037;-80
2022/04/02 11:34:19;;;;;;;14.73;11.17;;;1.80;99.90;;;;;;5015452;28;20026;-80
2022/04/02 11:36:47;;;;;;;17.43;12.63;;;1.80;99.90;;;;;;5016211;28;20386;-80
2022/04/02 11:39:36;;;;;;;19.90;12.70;;;1.90;99.90;;;;;;5013252;28;20438;-80
2022/04/02 11:42:03;;;;;;;16.90;12.50;;;1.80;99.90;;;;;;5009704;28;20025;-79
2022/04/02 11:44:37;;;;;;;21.10;12.33;;;1.90;99.90;;;;;;5011805;28;20447;-78
2022/04/02 11:47:05;;;;;;;28.50;17.03;;;1.90;99.90;;;;;;5011245;28;20550;-80
2022/04/02 11:49:40;;;;;;;42.63;19.30;;;1.80;99.90;;;;;;5013953;28;20068;-79
2022/04/02 11:52:11;;;;;;;41.13;17.83;;;1.90;99.90;;;;;;5013404;28;20034;-83
2022/04/02 11:54:49;;;;;;;20.73;12.37;;;1.90;99.90;;;;;;5013722;28;20125;-80
2022/04/02 11:57:15;;;;;;;25.77;12.83;;;2.00;99.90;;;;;;5012985;28;20036;-79
2022/04/02 12:00:01;;;;;;;16.87;11.23;;;2.10;99.90;;;;;;5008999;28;20029;-79
2022/04/02 12:02:43;;;;;;;19.92;12.68;;;2.10;99.90;;;;;;5013575;28;20026;-79
2022/04/02 12:05:13;;;;;;;16.07;10.67;;;2.20;99.90;;;;;;5004853;28;20026;-77
2022/04/02 12:07:51;;;;;;;16.77;10.60;;;2.20;99.90;;;;;;5007067;28;20426;-77
2022/04/02 12:10:18;;;;;;;15.77;10.53;;;2.30;99.90;;;;;;5014431;28;20058;-77
2022/04/02 12:12:46;;;;;;;11.93;9.30;;;2.50;99.90;;;;;;5014899;28;20022;-78
2022/04/02 12:15:13;;;;;;;14.73;11.43;;;2.60;99.90;;;;;;5015609;28;20022;-77
2022/04/02 12:17:40;;;;;;;16.40;10.40;;;2.50;99.90;;;;;;5015285;28;20026;-78
2022/04/02 12:20:10;;;;;;;11.33;8.77;;;2.70;99.90;;;;;;5012442;28;20030;-75
2022/04/02 12:22:38;;;;;;;12.67;8.60;;;2.70;99.90;;;;;;5013797;28;20030;-75
2022/04/02 12:25:08;;;;;;;14.20;9.70;;;2.70;99.90;;;;;;5010092;28;20018;-79
2022/04/02 12:27:36;;;;;;;13.90;8.80;;;2.70;99.90;;;;;;5004771;28;20022;-80
2022/04/02 12:30:09;;;;;;;11.50;8.87;;;2.70;99.90;;;;;;5023485;28;20109;-80
2022/04/02 12:32:40;;;;;;;14.57;9.77;;;2.80;99.90;;;;;;5022672;28;20142;-79
2022/04/02 12:35:15;;;;;;;13.37;9.73;;;2.90;99.90;;;;;;5016837;28;20073;-79
2022/04/02 12:37:44;;;;;;;12.63;9.70;;;2.80;99.90;;;;;;5018540;28;20057;-80
2022/04/02 12:40:22;;;;;;;12.07;8.83;;;2.90;99.90;;;;;;5016520;28;20054;-80
2022/04/02 12:42:50;;;;;;;13.30;9.60;;;2.80;99.90;;;;;;5023825;28;20029;-80
2022/04/02 12:45:17;;;;;;;14.20;10.03;;;3.00;99.90;;;;;;5012535;28;20026;-78
2022/04/02 12:48:05;;;;;;;11.60;8.80;;;3.00;99.90;;;;;;5003746;28;20030;-78
2022/04/02 12:50:37;;;;;;;13.13;9.87;;;3.00;99.90;;;;;;5014294;28;20030;-75
2022/04/02 12:53:04;;;;;;;12.80;10.23;;;2.80;99.90;;;;;;5008973;28;20119;-75
2022/04/02 12:55:33;;;;;;;12.70;9.40;;;2.80;99.90;;;;;;5010879;28;20045;-76
2022/04/02 12:58:12;;;;;;;13.07;8.47;;;3.00;99.90;;;;;;5008357;28;20038;-78